• Join FlightAware (Why Join?)
  • Login
  • US Flag 
08:23AM EDT


 

Airport Tracker/Info


-or-


 

Live Flight TrackerFlight Track Log ✈ N682RW ✈ 21-Jul-2013 ✈ KMKC - KMDW

Flight Track Log - Related Links

Times and Time Zones

All times are in EDT time to prevent confusion due to time zone crossing. See the N682RW flight status page for this flight to view local times or setup timezone preferences in your user account.

Time Position Orientation Groundspeed Altitude Reporting Facility
EDT Latitude Longitude Course Direction KTS MPH feet Rate Location/Type
07:02PM 39.1000 -94.6000 247° West 166 191 1,700  Level Kansas City TRACON
07:03PM 39.0833 -94.6500 247° West 203 234 3,100 1,800 Climbing Kansas City TRACON
07:04PM 39.0536 -94.7297 244° Southwest 253 291 5,300 1,860 Climbing Kansas City Center
07:05PM 39.1000 -94.8236 303° West 285 328 7,100 2,340 Climbing Kansas City Center
07:06PM 39.1744 -94.8203 North 281 323 10,200 2,160 Climbing Kansas City Center
07:07PM 39.2733 -94.8039 North 337 388 11,600 1,980 Climbing Kansas City Center
07:08PM 39.3667 -94.7831 10° North 355 409 14,400 1,620 Climbing Kansas City Center
07:09PM 39.4800 -94.7642 North 371 427 15,000 840 Climbing Kansas City Center
07:10PM 39.5775 -94.7483 North 370 426 16,200 1,560 Climbing Kansas City Center
07:11PM 39.6961 -94.7292 North 386 444 18,300 1,860 Climbing Kansas City Center
07:12PM 39.8036 -94.7092 North 405 466 20,100 1,680 Climbing Kansas City Center
07:13PM 39.9117 -94.6911 North 408 470 21,800 1,380 Climbing Kansas City Center
07:14PM 40.0286 -94.6064 29° Northeast 452 520 23,000 1,320 Climbing Kansas City Center
07:15PM 40.1233 -94.4986 41° Northeast 471 542 24,600 1,560 Climbing Kansas City Center
07:16PM 40.2367 -94.3742 40° Northeast 475 547 26,300 1,620 Climbing Kansas City Center
07:17PM 40.3464 -94.2489 41° Northeast 484 557 28,000 1,500 Climbing Kansas City Center
07:18PM 40.4475 -94.1342 41° Northeast 485 558 29,400 1,140 Climbing Kansas City Center
07:19PM 40.5367 -94.0044 48° Northeast 487 560 30,400 840 Climbing Kansas City Center
07:20PM 40.5639 -93.8297 78° East 491 565 31,200 720 Climbing Kansas City Center
07:21PM 40.5856 -93.6517 81° East 495 570 32,000 840 Climbing Kansas City Center
07:22PM 40.6150 -93.4750 78° East 497 572 33,000 480 Climbing Kansas City Center
07:23PM 40.6481 -93.2681 78° East 486 559 33,000  Level Kansas City Center
07:24PM 40.6744 -93.0944 79° East 485 558 33,000  Level Kansas City Center
07:25PM 40.7028 -92.9175 78° East 492 566 33,000  Level Kansas City Center
07:26PM 40.7294 -92.7414 79° East 490 564 33,000  Level Kansas City Center
07:27PM 40.7558 -92.5653 79° East 490 564 33,000  Level Kansas City Center
07:28PM 40.7817 -92.3914 79° East 484 557 33,000  Level Kansas City Center
07:30PM 40.8136 -92.1806 79° East 488 562 33,000  Level Kansas City Center
07:31PM 40.8378 -92.0047 80° East 488 562 33,000  Level Kansas City Center
07:32PM 40.8742 -91.7572 79° East 491 565 33,000 -840 Level Chicago Center
07:33PM 40.8997 -91.5792 79° East 494 568 31,000 -1,980 Descending Chicago Center
07:34PM 40.9244 -91.4031 79° East 493 567 29,000 -2,280 Descending Chicago Center
07:35PM 40.9542 -91.1869 80° East 498 573 26,400 -2,040 Descending Chicago Center
07:36PM 40.9783 -91.0039 80° East 505 581 24,900 -1,260 Descending Chicago Center
07:37PM 41.0025 -90.8233 80° East 499 574 23,800 -960 Descending Chicago Center
07:38PM 41.0256 -90.6508 80° East 478 550 23,000 -1,080 Descending Chicago Center
07:39PM 41.0483 -90.4775 80° East 477 549 21,600 -1,800 Descending Chicago Center
07:40PM 41.0700 -90.3100 80° East 463 533 19,400 -2,280 Descending Chicago Center
07:41PM 41.0936 -90.1219 80° East 434 499 17,000 -1,920 Descending Chicago Center
07:42PM 41.1131 -89.9753 80° East 411 473 15,500 -960 Descending Chicago Center
07:43PM 41.1314 -89.8311 80° East 399 459 15,100 -240 Descending Chicago Center
07:44PM 41.1483 -89.6856 81° East 397 457 15,100 -600 Level Chicago Center
07:45PM 41.1642 -89.5417 82° East 394 453 13,900 -1,320 Descending Chicago Center
07:47PM 41.1736 -89.4031 85° East 382 440 12,400 -1,440 Descending Chicago Center
07:48PM 41.2042 -89.2769 72° East 369 425 11,000 -1,200 Descending Chicago Center
07:49PM 41.2586 -89.1369 63° Northeast 360 414 10,000 -840 Descending Chicago Center
07:50PM 41.2961 -89.0294 65° Northeast 326 375 9,300 -1,020 Descending Chicago Center
07:51PM 41.3303 -88.9317 65° Northeast 298 343 8,000 -1,440 Descending Chicago Center
07:52PM 41.3653 -88.8353 64° Northeast 291 335 6,400 -1,020 Descending Chicago Center
07:53PM 41.3994 -88.7389 65° Northeast 290 334 6,000 -240 Descending Chicago Center
07:54PM 41.4406 -88.6233 65° Northeast 290 334 6,000  Level Chicago Center
07:55PM 41.4731 -88.5269 66° East 286 329 6,000 -480 Level Chicago Center
07:56PM 41.5061 -88.4319 65° Northeast 285 328 5,100 -540 Descending Chicago Center
07:57PM 41.5394 -88.3381 65° Northeast 282 325 5,000 -60 Descending Chicago Center
07:58PM 41.5539 -88.2397 79° East 271 312 5,000  Level Chicago Center
07:59PM 41.5608 -88.1364 85° East 275 316 5,000  Level Chicago Center
08:00PM 41.5694 -88.0336 84° East 276 318 5,000  Level Chicago Center
08:01PM 41.5794 -87.9103 84° East 276 318 5,000 -120 Level Chicago Center
08:02PM 41.5878 -87.8094 84° East 274 315 4,800 -840 Descending Chicago Center
08:03PM 41.5961 -87.7111 84° East 272 313 3,300 -840 Descending Chicago Center
08:04PM 41.6150 -87.6361 71° East 246 283 3,100 -120 Descending Chicago Center
08:05PM 41.6675 -87.6128 18° North 236 272 3,100 -360 Level Chicago Center
08:06PM 41.7250 -87.6700 323° Northwest 224 258 2,400 -660 Descending Chicago Center
08:07PM 41.7706 -87.6953 338° Northwest 208 239 1,800 -300 Descending Chicago Center
08:08PM 41.8164 -87.6775 16° North 185 213 1,800 -300 Level Chicago Center
08:09PM 41.8072 -87.7250 255° West 163 188 1,200 -420 Descending Chicago Center
08:10PM 41.7761 -87.7586 219° Southwest 160 184 1,000 -240 Descending Chicago Center